Terminal Aerodrome Forecast
Issued by NWS Milwaukee/Sullivan, WI

Home | Current Version | Previous Version | Text Only | Print | Product List | Glossary On
Versions: 1 2 3 4 5 6 7 8 9 10 11 12 13 14 15 16 17 18 19 20 21 22 23 24 25 26 27 28 29 30 31 32 33 34 35 36 37 38 39 40 41 42 43 44 45 46 47 48 49 50
057
FTUS43 KMKX 231002 AAC
TAFMSN
TAF AMD
KMSN 231002Z 2310/2406 00000KT 2SM BR BKN015
      TEMPO 2310/2312 3/4SM BR
     FM231300 00000KT 3SM BR SCT015
     FM231500 13005KT P6SM SCT030
     FM232100 19005KT P6SM VCTS SCT040CB BKN070
     FM240000 16007KT P6SM SHRA VCTS BKN040CB OVC060=

USA.gov is the U.S. government's official web portal to all federal, state and local government web resources and services.